メインページ
METAR-TAF:

METAR-TAF

空港 :

ハルビン太平国際空港

ハルビン, 中華人民共和国

緯度: 45-45N, 経度: 126-46E, 海抜: 143m

現時点の気象観測

当レポートは31分前の19:00(UTC)に作成
変向風 2kt
気温 7°C
湿度 93%
気圧 1015 hPa
視程10km以上
1,500メートル以下は雲なし、積乱雲なし

METAR: ZYHB 181900Z VRB01MPS CAVOK 07/06 Q1015 NOSIG

時間: 03:31 (19:31 UTC)

予報

当レポートは4時間18分前の15:13(UTC)に作成
予報は18日の 18時(UTC)から 19日の 18時(UTC)まで有効
の風 6kt
視程10km以上
1,500メートル以下は雲なし、積乱雲なし

TAF: ZYHB 181513Z 1818/1918 09003MPS CAVOK TX24/1906Z TN09/1821Z

4,000以上の空港の気象観測と天気予報(METAR報とTAF報)

利用可能な観測所は地図上に黄色い丸と赤い丸で示す。

丸の上にカーソルを重ねると観測所名を参照できる。

次にクリックすると気象観測と天気予報を参照できる。

マップの切り替え:黒色「×」印の緑ボタンをクリックして拡大、「-」印の緑ボタンをクリックして縮小、緑色の三角印をクリックして隣りの地図に切り替え


METAR-TAF: